createdAt,value
2023-03-12T00:02:25.967Z,99.90
2023-03-12T00:04:52.876Z,99.90
2023-03-12T00:07:19.739Z,99.90
2023-03-12T00:09:46.760Z,99.90
2023-03-12T00:12:14.128Z,99.90
2023-03-12T00:14:41.370Z,99.90
2023-03-12T00:17:08.313Z,99.90
2023-03-12T00:19:35.184Z,99.90
2023-03-12T00:22:04.951Z,99.90
2023-03-12T00:27:42.663Z,99.90
2023-03-12T00:30:11.495Z,99.90
2023-03-12T00:32:38.995Z,99.90
2023-03-12T00:35:07.071Z,99.90
2023-03-12T00:37:34.513Z,99.90
2023-03-12T00:40:01.949Z,99.90
2023-03-12T00:42:29.132Z,99.90
2023-03-12T00:44:56.057Z,99.90
2023-03-12T00:47:23.230Z,99.90
2023-03-12T00:49:50.132Z,99.90
2023-03-12T00:52:17.425Z,99.90
2023-03-12T00:54:44.437Z,99.90
2023-03-12T00:57:11.408Z,99.90
2023-03-12T00:59:40.416Z,99.90
2023-03-12T01:02:08.875Z,99.90
2023-03-12T01:14:19.096Z,99.90
2023-03-12T01:16:46.431Z,99.90
2023-03-12T01:19:13.424Z,99.90
2023-03-12T01:29:40.677Z,99.90
2023-03-12T01:32:07.857Z,99.90
2023-03-12T01:34:35.630Z,99.90
2023-03-12T01:39:47.821Z,99.90
2023-03-12T01:47:47.028Z,99.90
2023-03-12T01:50:14.534Z,99.90
2023-03-12T01:52:41.435Z,99.90
2023-03-12T01:55:14.906Z,99.90
2023-03-12T01:57:48.957Z,99.90
2023-03-12T02:00:20.099Z,99.90
2023-03-12T02:02:49.926Z,99.90
2023-03-12T02:11:13.917Z,99.90
2023-03-12T02:13:40.982Z,99.90
2023-03-12T02:16:09.417Z,99.90
2023-03-12T02:18:36.423Z,99.90
2023-03-12T02:21:23.285Z,99.90
2023-03-12T02:24:06.773Z,99.90
2023-03-12T02:26:35.782Z,99.90
2023-03-12T02:29:03.255Z,99.90
2023-03-12T02:36:50.816Z,99.90
2023-03-12T02:42:03.223Z,99.90
2023-03-12T02:44:33.468Z,99.90
2023-03-12T02:47:02.036Z,99.90
2023-03-12T02:49:32.623Z,99.90
2023-03-12T02:52:00.002Z,99.90
2023-03-12T02:57:29.506Z,99.90
2023-03-12T02:59:56.425Z,99.90
2023-03-12T03:02:24.352Z,99.90
2023-03-12T03:07:36.662Z,99.90
2023-03-12T03:10:09.870Z,99.90
2023-03-12T03:12:37.560Z,99.90
2023-03-12T03:15:05.652Z,99.90
2023-03-12T03:17:32.515Z,99.90
2023-03-12T03:19:59.314Z,99.90
2023-03-12T03:22:26.243Z,99.90
2023-03-12T03:33:54.487Z,99.90
2023-03-12T03:36:23.488Z,99.90
2023-03-12T03:38:50.652Z,99.90
2023-03-12T03:41:19.831Z,99.90
2023-03-12T03:43:47.518Z,99.90
2023-03-12T03:57:06.062Z,99.90
2023-03-12T03:59:32.934Z,99.90
2023-03-12T04:04:45.196Z,99.90
2023-03-12T04:07:12.539Z,99.90
2023-03-12T04:09:39.407Z,99.90
2023-03-12T04:12:06.501Z,99.90
2023-03-12T04:14:33.786Z,99.90
2023-03-12T04:17:00.818Z,99.90
2023-03-12T04:22:03.090Z,99.90
2023-03-12T04:43:37.711Z,99.90
2023-03-12T04:49:40.275Z,99.90
2023-03-12T04:54:42.489Z,99.90
2023-03-12T04:57:09.530Z,99.90
2023-03-12T04:59:36.800Z,99.90
2023-03-12T05:04:48.995Z,99.90
2023-03-12T05:07:16.307Z,99.90
2023-03-12T05:09:44.231Z,99.90
2023-03-12T05:12:11.231Z,99.90
2023-03-12T05:14:39.504Z,99.90
2023-03-12T05:17:56.890Z,99.90
2023-03-12T05:27:08.516Z,99.90
2023-03-12T05:29:35.534Z,99.90
2023-03-12T05:32:03.129Z,99.90
2023-03-12T05:34:31.442Z,99.90
2023-03-12T05:36:58.669Z,99.90
2023-03-12T05:42:18.508Z,99.90
2023-03-12T05:44:45.424Z,99.90
2023-03-12T05:47:12.745Z,99.90
2023-03-12T05:49:39.493Z,99.90
2023-03-12T05:57:50.495Z,99.90
2023-03-12T06:00:17.968Z,99.90
2023-03-12T06:08:06.177Z,99.90
2023-03-12T06:10:33.086Z,99.90
2023-03-12T06:13:00.396Z,99.90
2023-03-12T06:15:33.405Z,99.90
2023-03-12T06:18:00.692Z,99.90
2023-03-12T06:20:27.607Z,99.90
2023-03-12T06:25:40.197Z,99.90
2023-03-12T06:28:07.913Z,99.90
2023-03-12T06:30:35.242Z,99.90
2023-03-12T06:33:04.736Z,99.90
2023-03-12T06:35:31.689Z,99.90
2023-03-12T06:37:58.693Z,99.90
2023-03-12T06:40:26.001Z,99.90
2023-03-12T06:42:53.005Z,99.90
2023-03-12T06:45:21.208Z,99.90
2023-03-12T06:50:33.366Z,99.90
2023-03-12T06:53:00.245Z,99.90
2023-03-12T06:58:04.080Z,99.90
2023-03-12T07:03:06.802Z,99.90
2023-03-12T07:05:34.420Z,99.90
2023-03-12T07:08:01.930Z,99.90
2023-03-12T07:10:29.700Z,99.90
2023-03-12T07:15:32.200Z,99.90
2023-03-12T07:18:01.771Z,99.90
2023-03-12T07:23:15.040Z,99.90
2023-03-12T07:25:43.616Z,99.90
2023-03-12T07:28:12.224Z,99.90
2023-03-12T07:36:00.646Z,99.90
2023-03-12T07:38:27.998Z,99.90
2023-03-12T07:43:30.481Z,99.90
2023-03-12T07:45:57.524Z,99.90
2023-03-12T07:48:24.604Z,99.90
2023-03-12T07:50:52.156Z,99.90
2023-03-12T07:53:19.149Z,99.90
2023-03-12T07:55:47.965Z,99.90
2023-03-12T07:58:16.424Z,99.90
2023-03-12T08:00:43.559Z,99.90
2023-03-12T08:03:11.136Z,99.90
2023-03-12T08:05:38.363Z,99.90
2023-03-12T08:11:37.297Z,99.90
2023-03-12T08:14:05.269Z,99.90
2023-03-12T08:19:18.629Z,99.90
2023-03-12T08:21:45.435Z,99.90
2023-03-12T08:26:57.501Z,99.90
2023-03-12T08:29:24.394Z,99.90
2023-03-12T08:32:04.021Z,99.90
2023-03-12T08:34:34.844Z,99.90
2023-03-12T08:37:05.998Z,99.90
2023-03-12T08:39:33.736Z,99.90
2023-03-12T08:45:15.845Z,99.90
2023-03-12T08:47:44.394Z,99.90
2023-03-12T08:53:18.846Z,99.90
2023-03-12T08:55:56.415Z,99.90
2023-03-12T08:58:29.740Z,99.90
2023-03-12T09:00:59.270Z,99.90
2023-03-12T09:03:26.630Z,99.90
2023-03-12T09:06:24.894Z,99.90
2023-03-12T09:08:51.800Z,99.90
2023-03-12T09:19:26.995Z,99.90
2023-03-12T09:21:53.896Z,99.90
2023-03-12T09:24:22.863Z,99.90
2023-03-12T09:27:04.048Z,99.90
2023-03-12T09:29:34.059Z,99.90
2023-03-12T09:32:00.916Z,99.90
2023-03-12T09:34:27.796Z,99.90
2023-03-12T09:45:51.859Z,99.90
2023-03-12T09:48:33.352Z,99.90
2023-03-12T09:51:31.509Z,99.90
2023-03-12T09:54:03.126Z,99.90
2023-03-12T09:56:30.706Z,99.90
2023-03-12T10:01:50.682Z,99.90
2023-03-12T10:04:20.632Z,99.90
2023-03-12T10:07:18.661Z,99.90
2023-03-12T10:10:07.460Z,99.90
2023-03-12T10:12:55.980Z,99.90
2023-03-12T10:15:48.786Z,99.90
2023-03-12T10:18:48.514Z,99.90
2023-03-12T10:21:50.009Z,99.90
2023-03-12T10:24:29.268Z,99.90
2023-03-12T10:26:58.553Z,99.90
2023-03-12T10:29:36.399Z,99.90
2023-03-12T10:32:08.398Z,99.90
2023-03-12T10:34:43.051Z,99.90
2023-03-12T10:37:22.886Z,99.90
2023-03-12T10:39:50.641Z,99.90
2023-03-12T10:42:27.709Z,99.90
2023-03-12T10:45:05.880Z,99.90
2023-03-12T10:47:40.414Z,99.90
2023-03-12T10:50:18.956Z,99.90
2023-03-12T10:52:49.161Z,99.90
2023-03-12T10:55:35.965Z,99.90
2023-03-12T10:58:06.188Z,99.90
2023-03-12T11:00:34.046Z,99.90
2023-03-12T11:03:06.834Z,99.90
2023-03-12T11:05:36.748Z,99.90
2023-03-12T11:08:04.876Z,99.90
2023-03-12T11:10:41.084Z,99.90
2023-03-12T11:13:28.207Z,99.90
2023-03-12T11:15:58.122Z,99.90
2023-03-12T11:18:30.121Z,99.90
2023-03-12T11:21:18.183Z,99.90
2023-03-12T11:24:07.642Z,99.90
2023-03-12T11:26:49.762Z,99.90
2023-03-12T11:29:31.521Z,99.90
2023-03-12T11:32:25.529Z,99.90
2023-03-12T11:34:53.185Z,99.90
2023-03-12T11:37:52.529Z,99.90
2023-03-12T11:40:22.713Z,99.90
2023-03-12T11:43:12.376Z,99.90
2023-03-12T11:45:53.982Z,99.90
2023-03-12T11:48:28.876Z,99.90
2023-03-12T11:51:20.799Z,99.90
2023-03-12T11:54:19.406Z,99.90
2023-03-12T11:56:53.860Z,99.90
2023-03-12T11:59:48.852Z,99.90
2023-03-12T12:02:28.297Z,99.90
2023-03-12T12:05:16.840Z,99.90
2023-03-12T12:08:22.687Z,99.90
2023-03-12T12:10:55.420Z,99.90
2023-03-12T12:13:30.376Z,99.90
2023-03-12T12:16:34.903Z,99.90
2023-03-12T12:19:23.544Z,99.90
2023-03-12T12:25:21.871Z,99.90
2023-03-12T12:28:19.349Z,99.90
2023-03-12T12:31:12.223Z,99.90
2023-03-12T12:33:51.849Z,99.90
2023-03-12T12:36:19.255Z,99.90
2023-03-12T12:39:17.398Z,99.90
2023-03-12T12:41:57.909Z,99.90
2023-03-12T12:44:33.183Z,99.90
2023-03-12T12:47:05.578Z,99.90
2023-03-12T12:49:44.565Z,99.90
2023-03-12T12:52:21.686Z,99.90
2023-03-12T12:55:32.662Z,99.90
2023-03-12T12:58:07.887Z,99.90
2023-03-12T13:00:45.702Z,99.90
2023-03-12T13:03:17.675Z,99.90
2023-03-12T13:05:53.163Z,99.90
2023-03-12T13:08:34.727Z,99.90
2023-03-12T13:11:20.405Z,99.90
2023-03-12T13:14:12.207Z,99.90
2023-03-12T13:16:44.723Z,99.90
2023-03-12T13:19:14.993Z,99.90
2023-03-12T13:21:54.682Z,99.90
2023-03-12T13:24:35.100Z,99.90
2023-03-12T13:27:28.685Z,99.90
2023-03-12T13:29:57.386Z,99.90
2023-03-12T13:32:56.378Z,99.90
2023-03-12T13:35:23.204Z,99.90
2023-03-12T13:37:52.968Z,99.90
2023-03-12T13:40:32.084Z,99.90
2023-03-12T13:43:08.188Z,99.90
2023-03-12T13:45:59.813Z,99.90
2023-03-12T13:48:28.029Z,99.90
2023-03-12T13:51:12.586Z,99.50
2023-03-12T13:53:40.810Z,99.90
2023-03-12T13:56:12.968Z,99.00
2023-03-12T13:58:58.889Z,99.00
2023-03-12T14:01:41.527Z,98.00
2023-03-12T14:04:15.212Z,97.60
2023-03-12T14:07:23.735Z,96.10
2023-03-12T14:10:14.511Z,95.10
2023-03-12T14:13:03.213Z,95.30
2023-03-12T14:15:40.035Z,94.80
2023-03-12T14:18:18.180Z,96.80
2023-03-12T14:20:58.965Z,94.00
2023-03-12T14:23:37.078Z,92.70
2023-03-12T14:26:06.736Z,91.70
2023-03-12T14:28:41.220Z,90.60
2023-03-12T14:31:17.520Z,89.60
2023-03-12T14:34:16.988Z,88.60
2023-03-12T14:37:02.699Z,88.10
2023-03-12T14:39:50.708Z,88.40
2023-03-12T14:42:29.477Z,87.90
2023-03-12T14:48:06.064Z,84.90
2023-03-12T14:50:40.902Z,83.30
2023-03-12T14:53:23.697Z,82.00
2023-03-12T14:56:05.150Z,82.00
2023-03-12T14:58:41.855Z,81.70
2023-03-12T15:01:31.170Z,79.70
2023-03-12T15:04:03.541Z,79.90
2023-03-12T15:06:34.682Z,79.00
2023-03-12T15:09:09.020Z,77.80
2023-03-12T15:11:40.431Z,75.50
2023-03-12T15:14:13.218Z,77.20
2023-03-12T15:16:42.205Z,77.20
2023-03-12T15:19:14.062Z,77.90
2023-03-12T15:21:41.185Z,75.10
2023-03-12T15:24:13.420Z,78.00
2023-03-12T15:26:41.552Z,76.40
2023-03-12T15:29:28.301Z,74.90
2023-03-12T15:31:58.294Z,72.70
2023-03-12T15:34:35.006Z,73.60
2023-03-12T15:37:21.351Z,70.70
2023-03-12T15:39:51.620Z,70.80
2023-03-12T15:42:23.619Z,72.30
2023-03-12T15:44:57.014Z,71.90
2023-03-12T15:47:34.011Z,72.80
2023-03-12T15:50:07.797Z,73.30
2023-03-12T15:52:36.345Z,72.80
2023-03-12T15:55:12.256Z,74.60
2023-03-12T15:57:48.755Z,72.00
2023-03-12T16:00:46.735Z,69.90
2023-03-12T16:03:21.948Z,67.60
2023-03-12T16:05:51.979Z,66.80
2023-03-12T16:08:29.421Z,64.50
2023-03-12T16:10:56.531Z,63.80
2023-03-12T16:13:31.194Z,65.20
2023-03-12T16:15:58.856Z,68.30
2023-03-12T16:18:25.926Z,70.80
2023-03-12T16:20:53.959Z,76.60
2023-03-12T16:23:21.433Z,80.60
2023-03-12T16:25:52.565Z,82.60
2023-03-12T16:28:21.157Z,85.20
2023-03-12T16:30:48.030Z,87.40
2023-03-12T16:33:17.846Z,86.20
2023-03-12T16:35:44.874Z,87.10
2023-03-12T16:38:12.565Z,81.00
2023-03-12T16:40:43.697Z,81.10
2023-03-12T16:46:19.701Z,78.30
2023-03-12T16:48:52.101Z,79.30
2023-03-12T16:51:20.174Z,79.60
2023-03-12T16:53:53.230Z,81.50
2023-03-12T16:56:28.281Z,81.80
2023-03-12T16:58:55.348Z,83.10
2023-03-12T17:01:24.879Z,90.60
2023-03-12T17:03:54.250Z,92.20
2023-03-12T17:06:26.859Z,93.80
2023-03-12T17:08:55.710Z,94.10
2023-03-12T17:11:27.838Z,95.10
2023-03-12T17:13:58.932Z,95.30
2023-03-12T17:16:26.721Z,95.80
2023-03-12T17:18:56.904Z,97.20
2023-03-12T17:21:23.929Z,99.10
2023-03-12T17:23:51.277Z,99.90
2023-03-12T17:26:19.003Z,99.90
2023-03-12T17:28:45.947Z,99.90
2023-03-12T17:31:12.906Z,99.90
2023-03-12T17:33:39.896Z,99.90
2023-03-12T17:36:09.367Z,99.90
2023-03-12T17:38:36.819Z,99.90
2023-03-12T17:41:09.350Z,99.90
2023-03-12T17:43:41.225Z,99.90
2023-03-12T17:46:11.100Z,99.90
2023-03-12T17:48:38.022Z,99.90
2023-03-12T17:51:07.595Z,99.90
2023-03-12T17:53:34.402Z,99.90
2023-03-12T17:56:01.259Z,99.90
2023-03-12T17:58:28.534Z,99.90
2023-03-12T18:00:55.362Z,99.90
2023-03-12T18:03:22.185Z,99.90
2023-03-12T18:05:50.748Z,99.90
2023-03-12T18:08:18.159Z,99.90
2023-03-12T18:10:45.512Z,99.90
2023-03-12T18:13:12.400Z,99.90
2023-03-12T18:15:39.741Z,99.90
2023-03-12T18:18:07.434Z,99.90
2023-03-12T18:20:39.332Z,99.90
2023-03-12T18:23:07.237Z,99.90
2023-03-12T18:25:34.591Z,99.90
2023-03-12T18:28:01.776Z,99.90
2023-03-12T18:30:28.600Z,99.90
2023-03-12T18:32:55.937Z,99.90
2023-03-12T18:35:28.738Z,99.90
2023-03-12T18:37:59.171Z,99.90
2023-03-12T18:40:29.611Z,99.90
2023-03-12T18:43:00.205Z,99.90
2023-03-12T18:45:28.150Z,99.90
2023-03-12T18:47:55.652Z,99.90
2023-03-12T18:50:23.351Z,99.90
2023-03-12T18:52:50.305Z,99.90
2023-03-12T18:55:17.287Z,99.90
2023-03-12T18:57:47.190Z,99.90
2023-03-12T19:00:17.779Z,99.90
2023-03-12T19:02:47.885Z,99.90
2023-03-12T19:05:15.242Z,99.90
2023-03-12T19:07:42.854Z,99.90
2023-03-12T19:10:11.557Z,99.90
2023-03-12T19:12:50.837Z,99.90
2023-03-12T19:15:19.729Z,99.90
2023-03-12T19:17:46.671Z,99.90
2023-03-12T19:20:14.106Z,99.90
2023-03-12T19:22:40.987Z,99.90
2023-03-12T19:25:08.285Z,99.90
2023-03-12T19:27:35.208Z,99.90
2023-03-12T19:30:02.210Z,99.90
2023-03-12T19:32:40.562Z,99.90
2023-03-12T19:35:11.786Z,99.90
2023-03-12T19:37:39.154Z,99.90
2023-03-12T19:40:07.068Z,99.90
2023-03-12T19:42:34.500Z,99.90
2023-03-12T19:45:01.483Z,99.90
2023-03-12T19:47:29.752Z,99.90
2023-03-12T19:49:57.004Z,99.90
2023-03-12T19:52:24.365Z,99.90
2023-03-12T19:55:03.889Z,99.90
2023-03-12T19:57:31.859Z,99.90
2023-03-12T19:59:58.935Z,99.90
2023-03-12T20:02:26.394Z,99.90
2023-03-12T20:04:53.947Z,99.90
2023-03-12T20:07:20.740Z,99.90
2023-03-12T20:09:47.696Z,99.90
2023-03-12T20:12:14.659Z,99.90
2023-03-12T20:14:42.909Z,99.90
2023-03-12T20:17:12.133Z,99.90
2023-03-12T20:19:39.669Z,99.90
2023-03-12T20:22:07.350Z,99.90
2023-03-12T20:24:35.214Z,99.90
2023-03-12T20:27:03.974Z,99.90
2023-03-12T20:29:31.373Z,99.90
2023-03-12T20:31:58.270Z,99.90
2023-03-12T20:34:25.366Z,99.90
2023-03-12T20:36:52.631Z,99.90
2023-03-12T20:39:19.582Z,99.90
2023-03-12T20:41:49.405Z,99.90
2023-03-12T20:44:16.810Z,99.90
2023-03-12T20:46:44.006Z,99.90
2023-03-12T20:49:11.266Z,99.90
2023-03-12T20:51:38.079Z,99.90
2023-03-12T20:54:04.993Z,99.90
2023-03-12T20:56:31.788Z,99.90
2023-03-12T20:58:59.531Z,99.90
2023-03-12T21:01:28.242Z,99.90
2023-03-12T21:03:58.906Z,99.90
2023-03-12T21:06:27.149Z,99.90
2023-03-12T21:08:58.166Z,99.90
2023-03-12T21:11:26.882Z,99.90
2023-03-12T21:13:54.457Z,99.90
2023-03-12T21:16:21.402Z,99.90
2023-03-12T21:18:48.335Z,99.90
2023-03-12T21:21:15.320Z,99.90
2023-03-12T21:23:42.590Z,99.90
2023-03-12T21:26:11.276Z,99.90
2023-03-12T21:28:38.104Z,99.90
2023-03-12T21:31:10.358Z,99.90
2023-03-12T21:33:37.614Z,99.90
2023-03-12T21:36:06.709Z,99.90
2023-03-12T21:38:36.074Z,99.90
2023-03-12T21:41:07.488Z,99.90
2023-03-12T21:43:34.915Z,99.90
2023-03-12T21:46:11.014Z,99.90
2023-03-12T21:48:38.871Z,99.90
2023-03-12T21:51:08.551Z,99.90
2023-03-12T21:53:36.079Z,99.90
2023-03-12T21:56:04.952Z,99.90
2023-03-12T21:58:32.823Z,99.90
2023-03-12T22:01:17.809Z,99.90
2023-03-12T22:03:45.724Z,99.90
2023-03-12T22:06:14.224Z,99.90
2023-03-12T22:08:42.649Z,99.90
2023-03-12T22:11:10.053Z,99.90
2023-03-12T22:13:37.868Z,99.90
2023-03-12T22:16:08.083Z,99.90
2023-03-12T22:18:39.173Z,99.90
2023-03-12T22:21:07.706Z,99.90
2023-03-12T22:23:38.129Z,99.90
2023-03-12T22:26:06.888Z,99.90
2023-03-12T22:28:34.507Z,99.90
2023-03-12T22:31:04.488Z,99.90
2023-03-12T22:33:31.349Z,99.90
2023-03-12T22:35:58.759Z,99.90
2023-03-12T22:38:25.977Z,99.90
2023-03-12T22:40:55.499Z,99.90
2023-03-12T22:43:24.849Z,99.90
2023-03-12T22:45:54.841Z,99.90
2023-03-12T22:48:21.651Z,99.90
2023-03-12T22:50:54.791Z,99.90
2023-03-12T22:53:21.793Z,99.90
2023-03-12T22:55:57.549Z,99.90
2023-03-12T22:58:24.833Z,99.90
2023-03-12T23:01:08.482Z,99.90
2023-03-12T23:03:40.384Z,99.90
2023-03-12T23:06:33.616Z,99.90
2023-03-12T23:09:04.056Z,99.90
2023-03-12T23:11:31.124Z,99.90
2023-03-12T23:13:58.044Z,99.90
2023-03-12T23:16:28.827Z,99.90
2023-03-12T23:18:56.623Z,99.90
2023-03-12T23:21:24.609Z,99.90
2023-03-12T23:23:52.266Z,99.90
2023-03-12T23:26:21.986Z,99.90
2023-03-12T23:28:51.849Z,99.90
2023-03-12T23:31:19.393Z,99.90
2023-03-12T23:33:46.310Z,99.90
2023-03-12T23:36:18.595Z,99.90
2023-03-12T23:38:46.976Z,99.90
2023-03-12T23:41:25.429Z,99.90
2023-03-12T23:43:53.164Z,99.90
2023-03-12T23:46:23.231Z,99.90
2023-03-12T23:48:53.460Z,99.90
2023-03-12T23:51:22.105Z,99.90
2023-03-12T23:53:51.080Z,99.90
2023-03-12T23:56:21.120Z,99.90
2023-03-12T23:58:48.635Z,99.90
